^^
Paulen-Weather Station Historical Data
Daily Summary for May 29, 2022 Units:  Metric    English   Both
Daily Weekly Monthly Yearly Custom
  High: Low: Average:
Temperature: 15 °C 10 °C 12.5 °C
Dew Point: 10 °C 5 °C 6.2 °C
Humidity: 76% 53% 65%
Wind Speed: 21km/h 3km/h 15km/h
Wind Gust: 20km/h - -
Wind- - SSW
Pressure: 1009.31 hPa 1004.84 hPa -
Precipitation: 0 mm    
Historical Graphs
 
 
Tabular Data for May 29, 2022
Time Temperature Dew Point Pressure Wind Wind Speed Wind Gust Humidity Rainfall Rate (Hourly) solar
00:04 12 °C 6 °C 1009.25 hPa NNW 9 km/h 9 km/h 67% 0 mm 0 W/m2
00:09 12 °C 6 °C 1009.28 hPa N 10 km/h 8 km/h 64% 0 mm 0 W/m2
00:14 12 °C 6 °C 1009.28 hPa N 11 km/h 9 km/h 63% 0 mm 0 W/m2
00:19 12 °C 6 °C 1009.28 hPa N 10 km/h 9 km/h 64% 0 mm 0 W/m2
00:24 12 °C 5 °C 1009.28 hPa NNW 9 km/h 9 km/h 62% 0 mm 0 W/m2
00:29 12 °C 5 °C 1009.31 hPa NNW 8 km/h 8 km/h 60% 0 mm 0 W/m2
00:34 13 °C 5 °C 1009.31 hPa N 11 km/h 10 km/h 59% 0 mm 0 W/m2
00:39 12 °C 5 °C 1009.28 hPa N 12 km/h 11 km/h 60% 0 mm 0 W/m2
00:44 12 °C 6 °C 1009.28 hPa N 12 km/h 10 km/h 63% 0 mm 0 W/m2
00:49 12 °C 6 °C 1009.28 hPa N 11 km/h 10 km/h 66% 0 mm 0 W/m2
00:54 12 °C 6 °C 1009.28 hPa N 12 km/h 11 km/h 64% 0 mm 0 W/m2
00:59 12 °C 6 °C 1009.25 hPa N 13 km/h 11 km/h 66% 0 mm 0 W/m2
01:04 12 °C 6 °C 1009.25 hPa N 14 km/h 12 km/h 66% 0 mm 0 W/m2
01:09 12 °C 6 °C 1009.18 hPa N 15 km/h 13 km/h 66% 0 mm 0 W/m2
01:14 12 °C 6 °C 1009.18 hPa N 15 km/h 14 km/h 65% 0 mm 0 W/m2
01:19 12 °C 6 °C 1009.11 hPa N 16 km/h 14 km/h 65% 0 mm 0 W/m2
01:24 12 °C 6 °C 1009.08 hPa N 14 km/h 12 km/h 66% 0 mm 0 W/m2
01:29 12 °C 6 °C 1009.11 hPa N 13 km/h 11 km/h 68% 0 mm 0 W/m2
01:34 12 °C 7 °C 1009.11 hPa N 10 km/h 10 km/h 70% 0 mm 0 W/m2
01:39 12 °C 6 °C 1009.04 hPa N 8 km/h 7 km/h 70% 0 mm 0 W/m2
01:44 12 °C 7 °C 1009.04 hPa NNW 9 km/h 10 km/h 71% 0 mm 0 W/m2
01:49 11 °C 6 °C 1009.04 hPa NNW 10 km/h 9 km/h 70% 0 mm 0 W/m2
01:54 11 °C 6 °C 1008.97 hPa NNW 9 km/h 9 km/h 69% 0 mm 0 W/m2
01:59 11 °C 6 °C 1008.97 hPa NNW 8 km/h 7 km/h 70% 0 mm 0 W/m2
02:04 11 °C 6 °C 1009.01 hPa NNW 8 km/h 8 km/h 68% 0 mm 0 W/m2
02:09 11 °C 6 °C 1008.97 hPa N 7 km/h 7 km/h 70% 0 mm 0 W/m2
02:14 11 °C 6 °C 1008.97 hPa N 8 km/h 7 km/h 68% 0 mm 0 W/m2
02:19 11 °C 6 °C 1008.97 hPa N 8 km/h 6 km/h 68% 0 mm 0 W/m2
02:24 11 °C 6 °C 1008.91 hPa N 8 km/h 7 km/h 67% 0 mm 0 W/m2
02:29 11 °C 6 °C 1008.87 hPa N 8 km/h 6 km/h 67% 0 mm 0 W/m2
02:34 11 °C 5 °C 1008.87 hPa N 10 km/h 7 km/h 67% 0 mm 0 W/m2
02:39 11 °C 6 °C 1008.81 hPa N 9 km/h 8 km/h 67% 0 mm 0 W/m2
02:44 11 °C 6 °C 1008.77 hPa N 10 km/h 9 km/h 67% 0 mm 0 W/m2
02:49 11 °C 6 °C 1008.74 hPa NNW 14 km/h 14 km/h 68% 0 mm 0 W/m2
02:54 11 °C 5 °C 1008.74 hPa NNW 17 km/h 15 km/h 65% 0 mm 0 W/m2
02:59 11 °C 6 °C 1008.74 hPa NNW 13 km/h 12 km/h 67% 0 mm 0 W/m2
03:04 11 °C 5 °C 1008.77 hPa NNW 15 km/h 13 km/h 67% 0 mm 0 W/m2
03:09 11 °C 5 °C 1008.7 hPa NNW 14 km/h 12 km/h 67% 0 mm 0 W/m2
03:14 11 °C 5 °C 1008.7 hPa N 15 km/h 14 km/h 66% 0 mm 0 W/m2
03:19 11 °C 5 °C 1008.7 hPa NNW 15 km/h 14 km/h 67% 0 mm 0 W/m2
03:24 11 °C 5 °C 1008.7 hPa N 15 km/h 14 km/h 66% 0 mm 0 W/m2
03:29 11 °C 5 °C 1008.67 hPa N 15 km/h 13 km/h 67% 0 mm 0 W/m2
03:34 11 °C 5 °C 1008.67 hPa N 14 km/h 12 km/h 67% 0 mm 0 W/m2
03:39 11 °C 5 °C 1008.67 hPa NNW 15 km/h 14 km/h 69% 0 mm 0 W/m2
03:44 11 °C 5 °C 1008.67 hPa NNW 15 km/h 14 km/h 68% 0 mm 0 W/m2
03:49 11 °C 5 °C 1008.64 hPa N 13 km/h 14 km/h 68% 0 mm 0 W/m2
03:54 11 °C 5 °C 1008.64 hPa N 17 km/h 13 km/h 69% 0 mm 0 W/m2
03:59 11 °C 5 °C 1008.57 hPa NNW 15 km/h 12 km/h 69% 0 mm 0 W/m2
04:04 11 °C 5 °C 1008.57 hPa NNW 18 km/h 17 km/h 68% 0 mm 0 W/m2
04:09 11 °C 5 °C 1008.53 hPa NNW 16 km/h 14 km/h 68% 0 mm 0 W/m2
04:14 11 °C 5 °C 1008.53 hPa NNW 17 km/h 15 km/h 68% 0 mm 0 W/m2
04:19 11 °C 5 °C 1008.57 hPa NNW 17 km/h 14 km/h 69% 0 mm 0 W/m2
04:24 10 °C 5 °C 1008.53 hPa NNW 17 km/h 13 km/h 69% 0 mm 0 W/m2
04:29 10 °C 5 °C 1008.53 hPa NNW 17 km/h 14 km/h 69% 0 mm 0 W/m2
04:34 10 °C 5 °C 1008.53 hPa NNW 16 km/h 14 km/h 69% 0 mm 0 W/m2
04:39 10 °C 5 °C 1008.57 hPa N 16 km/h 15 km/h 69% 0 mm 5 W/m2
04:44 10 °C 5 °C 1008.57 hPa NNW 18 km/h 15 km/h 69% 0 mm 7 W/m2
04:49 10 °C 5 °C 1008.57 hPa N 19 km/h 16 km/h 69% 0 mm 12 W/m2
04:54 10 °C 5 °C 1008.6 hPa NNW 19 km/h 18 km/h 69% 0 mm 16 W/m2
04:59 10 °C 5 °C 1008.57 hPa N 19 km/h 18 km/h 68% 0 mm 21 W/m2
05:04 10 °C 5 °C 1008.57 hPa NNW 19 km/h 16 km/h 69% 0 mm 25 W/m2
05:09 10 °C 5 °C 1008.53 hPa NNW 18 km/h 17 km/h 69% 0 mm 30 W/m2
05:14 10 °C 5 °C 1008.57 hPa N 19 km/h 17 km/h 69% 0 mm 37 W/m2
05:19 10 °C 5 °C 1008.6 hPa NNW 19 km/h 16 km/h 69% 0 mm 42 W/m2
05:24 10 °C 5 °C 1008.57 hPa NNW 19 km/h 16 km/h 70% 0 mm 49 W/m2
05:29 10 °C 5 °C 1008.6 hPa NNW 18 km/h 17 km/h 69% 0 mm 58 W/m2
05:34 10 °C 5 °C 1008.6 hPa N 20 km/h 18 km/h 70% 0 mm 65 W/m2
05:39 10 °C 5 °C 1008.6 hPa NNW 18 km/h 16 km/h 70% 0 mm 72 W/m2
05:44 10 °C 5 °C 1008.67 hPa NNW 18 km/h 14 km/h 71% 0 mm 83 W/m2
05:49 10 °C 5 °C 1008.77 hPa NNW 19 km/h 18 km/h 71% 0 mm 90 W/m2
05:54 10 °C 5 °C 1008.81 hPa NNW 16 km/h 13 km/h 71% 0 mm 98 W/m2
05:59 10 °C 5 °C 1008.81 hPa N 17 km/h 13 km/h 71% 0 mm 107 W/m2
06:04 10 °C 5 °C 1008.77 hPa N 17 km/h 16 km/h 71% 0 mm 116 W/m2
06:09 10 °C 5 °C 1008.77 hPa NNW 18 km/h 14 km/h 70% 0 mm 125 W/m2
06:14 10 °C 5 °C 1008.77 hPa NNW 17 km/h 15 km/h 70% 0 mm 135 W/m2
06:19 10 °C 5 °C 1008.74 hPa N 16 km/h 15 km/h 70% 0 mm 144 W/m2
06:24 10 °C 5 °C 1008.7 hPa NNW 18 km/h 15 km/h 70% 0 mm 153 W/m2
06:29 11 °C 5 °C 1008.74 hPa N 14 km/h 14 km/h 70% 0 mm 163 W/m2
06:34 11 °C 5 °C 1008.7 hPa NNW 15 km/h 13 km/h 69% 0 mm 174 W/m2
06:39 11 °C 5 °C 1008.7 hPa NNW 15 km/h 13 km/h 70% 0 mm 183 W/m2
06:44 11 °C 5 °C 1008.74 hPa NNW 17 km/h 14 km/h 69% 0 mm 195 W/m2
06:49 11 °C 5 °C 1008.7 hPa N 14 km/h 12 km/h 69% 0 mm 206 W/m2
06:54 11 °C 6 °C 1008.67 hPa N 11 km/h 9 km/h 70% 0 mm 216 W/m2
06:59 11 °C 6 °C 1008.74 hPa NNW 14 km/h 12 km/h 69% 0 mm 227 W/m2
07:04 11 °C 6 °C 1008.7 hPa N 13 km/h 10 km/h 69% 0 mm 237 W/m2
07:09 12 °C 6 °C 1008.7 hPa N 12 km/h 10 km/h 68% 0 mm 248 W/m2
07:14 12 °C 6 °C 1008.7 hPa N 12 km/h 11 km/h 67% 0 mm 262 W/m2
07:19 12 °C 6 °C 1008.67 hPa N 14 km/h 11 km/h 66% 0 mm 271 W/m2
07:24 12 °C 6 °C 1008.64 hPa N 17 km/h 15 km/h 65% 0 mm 283 W/m2
07:29 12 °C 6 °C 1008.57 hPa N 15 km/h 13 km/h 65% 0 mm 295 W/m2
07:34 12 °C 6 °C 1008.6 hPa N 16 km/h 14 km/h 65% 0 mm 306 W/m2
07:39 12 °C 5 °C 1008.57 hPa N 17 km/h 14 km/h 64% 0 mm 316 W/m2
07:44 12 °C 6 °C 1008.53 hPa N 15 km/h 13 km/h 65% 0 mm 329 W/m2
07:49 12 °C 6 °C 1008.5 hPa N 18 km/h 16 km/h 65% 0 mm 339 W/m2
07:54 12 °C 5 °C 1008.47 hPa N 19 km/h 16 km/h 64% 0 mm 350 W/m2
07:59 12 °C 5 °C 1008.4 hPa N 19 km/h 16 km/h 64% 0 mm 362 W/m2
08:04 12 °C 5 °C 1008.43 hPa N 18 km/h 15 km/h 63% 0 mm 373 W/m2
08:09 12 °C 5 °C 1008.43 hPa N 18 km/h 15 km/h 64% 0 mm 383 W/m2
08:14 12 °C 6 °C 1008.47 hPa N 16 km/h 14 km/h 64% 0 mm 396 W/m2
08:19 12 °C 6 °C 1008.53 hPa N 15 km/h 11 km/h 65% 0 mm 406 W/m2
08:24 13 °C 6 °C 1008.53 hPa N 13 km/h 10 km/h 65% 0 mm 415 W/m2
08:29 13 °C 6 °C 1008.5 hPa N 14 km/h 10 km/h 63% 0 mm 429 W/m2
08:34 13 °C 6 °C 1008.5 hPa N 12 km/h 11 km/h 64% 0 mm 438 W/m2
08:39 13 °C 6 °C 1008.43 hPa N 11 km/h 9 km/h 63% 0 mm 450 W/m2
08:44 13 °C 6 °C 1008.47 hPa N 11 km/h 10 km/h 63% 0 mm 461 W/m2
08:49 13 °C 6 °C 1008.4 hPa N 10 km/h 9 km/h 62% 0 mm 471 W/m2
08:54 13 °C 6 °C 1008.4 hPa N 8 km/h 7 km/h 61% 0 mm 480 W/m2
08:59 14 °C 6 °C 1008.4 hPa N 8 km/h 7 km/h 61% 0 mm 492 W/m2
09:04 14 °C 6 °C 1008.47 hPa N 10 km/h 10 km/h 60% 0 mm 501 W/m2
09:09 14 °C 6 °C 1008.47 hPa N 9 km/h 9 km/h 61% 0 mm 510 W/m2
09:14 14 °C 6 °C 1008.47 hPa N 7 km/h 6 km/h 60% 0 mm 522 W/m2
09:19 14 °C 6 °C 1008.43 hPa N 7 km/h 7 km/h 59% 0 mm 531 W/m2
09:24 14 °C 6 °C 1008.4 hPa N 6 km/h 6 km/h 59% 0 mm 540 W/m2
09:29 14 °C 6 °C 1008.36 hPa N 5 km/h 4 km/h 58% 0 mm 552 W/m2
09:34 14 °C 7 °C 1008.33 hPa NNE 5 km/h 5 km/h 59% 0 mm 563 W/m2
09:39 15 °C 6 °C 1008.26 hPa NE 3 km/h 2 km/h 54% 0 mm 573 W/m2
09:44 15 °C 5 °C 1008.26 hPa NE 6 km/h 8 km/h 53% 0 mm 584 W/m2
09:49 14 °C 5 °C 1008.23 hPa NE 14 km/h 10 km/h 55% 0 mm 592 W/m2
09:54 14 °C 5 °C 1008.23 hPa NE 14 km/h 12 km/h 55% 0 mm 601 W/m2
09:59 14 °C 5 °C 1008.16 hPa ENE 12 km/h 11 km/h 55% 0 mm 610 W/m2
10:04 14 °C 5 °C 1008.13 hPa ENE 12 km/h 11 km/h 56% 0 mm 619 W/m2
10:09 14 °C 5 °C 1008.09 hPa NE 14 km/h 11 km/h 55% 0 mm 628 W/m2
10:14 14 °C 6 °C 1008.09 hPa ENE 16 km/h 12 km/h 59% 0 mm 636 W/m2
10:19 14 °C 5 °C 1007.96 hPa NNE 16 km/h 14 km/h 57% 0 mm 645 W/m2
10:24 14 °C 6 °C 1007.99 hPa NNE 17 km/h 14 km/h 58% 0 mm 652 W/m2
10:29 13 °C 6 °C 1007.96 hPa NNE 17 km/h 14 km/h 60% 0 mm 661 W/m2
10:34 13 °C 6 °C 1007.86 hPa NNE 18 km/h 14 km/h 61% 0 mm 668 W/m2
10:39 14 °C 6 °C 1007.86 hPa NE 15 km/h 12 km/h 61% 0 mm 677 W/m2
10:44 14 °C 6 °C 1007.72 hPa NE 17 km/h 13 km/h 60% 0 mm 686 W/m2
10:49 14 °C 6 °C 1007.69 hPa NE 17 km/h 16 km/h 59% 0 mm 693 W/m2
10:54 14 °C 6 °C 1007.72 hPa NE 17 km/h 14 km/h 61% 0 mm 700 W/m2
10:59 13 °C 6 °C 1007.69 hPa NNE 17 km/h 14 km/h 60% 0 mm 705 W/m2
11:04 13 °C 6 °C 1007.69 hPa NE 18 km/h 14 km/h 62% 0 mm 712 W/m2
11:09 13 °C 6 °C 1007.72 hPa NNE 18 km/h 17 km/h 61% 0 mm 717 W/m2
11:14 13 °C 6 °C 1007.65 hPa NNE 16 km/h 14 km/h 62% 0 mm 724 W/m2
11:19 13 °C 6 °C 1007.65 hPa NE 17 km/h 14 km/h 62% 0 mm 731 W/m2
11:24 13 °C 6 °C 1007.62 hPa NE 16 km/h 13 km/h 62% 0 mm 738 W/m2
11:29 13 °C 7 °C 1007.62 hPa E 16 km/h 14 km/h 65% 0 mm 744 W/m2
11:34 13 °C 6 °C 1007.65 hPa NNE 16 km/h 16 km/h 62% 0 mm 747 W/m2
11:39 13 °C 6 °C 1007.69 hPa NE 15 km/h 13 km/h 63% 0 mm 752 W/m2
11:44 13 °C 7 °C 1007.65 hPa NE 16 km/h 13 km/h 65% 0 mm 758 W/m2
11:49 13 °C 7 °C 1007.59 hPa ENE 16 km/h 13 km/h 65% 0 mm 763 W/m2
11:54 13 °C 7 °C 1007.59 hPa NNE 16 km/h 14 km/h 65% 0 mm 765 W/m2
11:59 13 °C 7 °C 1007.55 hPa NE 14 km/h 12 km/h 66% 0 mm 772 W/m2
12:04 13 °C 7 °C 1007.59 hPa E 15 km/h 12 km/h 66% 0 mm 777 W/m2
12:09 13 °C 7 °C 1007.62 hPa NE 13 km/h 12 km/h 64% 0 mm 780 W/m2
12:14 13 °C 7 °C 1007.55 hPa NE 14 km/h 12 km/h 65% 0 mm 784 W/m2
12:19 14 °C 7 °C 1007.52 hPa NE 13 km/h 11 km/h 64% 0 mm 789 W/m2
12:24 14 °C 7 °C 1007.52 hPa E 14 km/h 13 km/h 64% 0 mm 795 W/m2
12:29 13 °C 7 °C 1007.48 hPa N 16 km/h 13 km/h 65% 0 mm 800 W/m2
12:34 13 °C 7 °C 1007.48 hPa N 16 km/h 14 km/h 65% 0 mm 805 W/m2
12:39 13 °C 7 °C 1007.45 hPa N 15 km/h 12 km/h 66% 0 mm 814 W/m2
12:44 13 °C 7 °C 1007.42 hPa ESE 15 km/h 11 km/h 66% 0 mm 824 W/m2
12:49 14 °C 7 °C 1007.42 hPa N 14 km/h 11 km/h 65% 0 mm 830 W/m2
12:54 14 °C 7 °C 1007.38 hPa N 16 km/h 16 km/h 65% 0 mm 835 W/m2
12:59 13 °C 7 °C 1007.38 hPa N 18 km/h 14 km/h 67% 0 mm 854 W/m2
13:04 13 °C 7 °C 1007.35 hPa N 18 km/h 17 km/h 66% 0 mm 853 W/m2
13:09 13 °C 7 °C 1007.32 hPa N 16 km/h 15 km/h 66% 0 mm 817 W/m2
13:14 13 °C 7 °C 1007.28 hPa N 14 km/h 13 km/h 64% 0 mm 842 W/m2
13:19 13 °C 7 °C 1007.21 hPa N 16 km/h 13 km/h 64% 0 mm 860 W/m2
13:24 13 °C 7 °C 1007.15 hPa N 15 km/h 12 km/h 64% 0 mm 875 W/m2
13:29 14 °C 7 °C 1007.15 hPa N 13 km/h 11 km/h 63% 0 mm 877 W/m2
13:34 13 °C 7 °C 1007.08 hPa NNE 18 km/h 16 km/h 64% 0 mm 856 W/m2
13:39 13 °C 7 °C 1007.08 hPa N 18 km/h 16 km/h 64% 0 mm 761 W/m2
13:44 13 °C 6 °C 1007.04 hPa N 17 km/h 15 km/h 63% 0 mm 729 W/m2
13:49 13 °C 6 °C 1007.04 hPa N 18 km/h 16 km/h 64% 0 mm 719 W/m2
13:54 13 °C 7 °C 1007.01 hPa N 19 km/h 16 km/h 65% 0 mm 719 W/m2
13:59 13 °C 6 °C 1006.98 hPa N 16 km/h 14 km/h 64% 0 mm 731 W/m2
14:04 13 °C 6 °C 1006.98 hPa N 15 km/h 14 km/h 63% 0 mm 710 W/m2
14:09 13 °C 6 °C 1006.98 hPa N 16 km/h 17 km/h 63% 0 mm 759 W/m2
14:14 13 °C 7 °C 1006.94 hPa N 16 km/h 15 km/h 63% 0 mm 728 W/m2
14:19 13 °C 6 °C 1006.87 hPa N 17 km/h 15 km/h 62% 0 mm 708 W/m2
14:24 13 °C 6 °C 1006.84 hPa N 18 km/h 14 km/h 63% 0 mm 758 W/m2
14:29 13 °C 7 °C 1006.77 hPa N 18 km/h 15 km/h 63% 0 mm 738 W/m2
14:34 14 °C 7 °C 1006.71 hPa N 17 km/h 18 km/h 63% 0 mm 800 W/m2
14:39 13 °C 7 °C 1006.67 hPa N 18 km/h 15 km/h 64% 0 mm 800 W/m2
14:44 13 °C 7 °C 1006.54 hPa N 18 km/h 17 km/h 64% 0 mm 742 W/m2
14:49 14 °C 7 °C 1006.54 hPa N 17 km/h 14 km/h 65% 0 mm 645 W/m2
14:54 14 °C 7 °C 1006.5 hPa N 17 km/h 13 km/h 65% 0 mm 647 W/m2
14:59 14 °C 7 °C 1006.5 hPa N 16 km/h 12 km/h 63% 0 mm 673 W/m2
15:04 14 °C 7 °C 1006.47 hPa N 15 km/h 14 km/h 61% 0 mm 705 W/m2
15:09 14 °C 7 °C 1006.43 hPa N 14 km/h 11 km/h 63% 0 mm 663 W/m2
15:14 14 °C 7 °C 1006.37 hPa N 17 km/h 14 km/h 61% 0 mm 656 W/m2
15:19 14 °C 7 °C 1006.37 hPa N 18 km/h 14 km/h 63% 0 mm 615 W/m2
15:24 14 °C 7 °C 1006.37 hPa N 18 km/h 17 km/h 63% 0 mm 605 W/m2
15:29 14 °C 7 °C 1006.3 hPa N 18 km/h 17 km/h 61% 0 mm 657 W/m2
15:34 14 °C 7 °C 1006.27 hPa N 18 km/h 16 km/h 62% 0 mm 635 W/m2
15:39 14 °C 6 °C 1006.23 hPa N 18 km/h 16 km/h 60% 0 mm 587 W/m2
15:44 14 °C 6 °C 1006.23 hPa N 18 km/h 14 km/h 60% 0 mm 573 W/m2
15:49 14 °C 7 °C 1006.23 hPa N 17 km/h 14 km/h 63% 0 mm 584 W/m2
15:54 14 °C 7 °C 1006.16 hPa N 17 km/h 14 km/h 63% 0 mm 566 W/m2
15:59 14 °C 8 °C 1006.13 hPa N 18 km/h 17 km/h 66% 0 mm 571 W/m2
16:04 14 °C 7 °C 1006.13 hPa N 13 km/h 11 km/h 62% 0 mm 526 W/m2
16:09 14 °C 7 °C 1006.1 hPa N 17 km/h 13 km/h 60% 0 mm 529 W/m2
16:14 14 °C 6 °C 1006.1 hPa N 19 km/h 16 km/h 58% 0 mm 533 W/m2
16:19 14 °C 6 °C 1006.03 hPa N 17 km/h 13 km/h 58% 0 mm 519 W/m2
16:24 14 °C 6 °C 1005.96 hPa N 17 km/h 15 km/h 57% 0 mm 582 W/m2
16:29 14 °C 6 °C 1005.93 hPa N 20 km/h 20 km/h 55% 0 mm 582 W/m2
16:34 14 °C 7 °C 1005.83 hPa N 18 km/h 19 km/h 59% 0 mm 559 W/m2
16:39 15 °C 6 °C 1005.76 hPa N 19 km/h 19 km/h 57% 0 mm 610 W/m2
16:44 15 °C 7 °C 1005.76 hPa N 16 km/h 13 km/h 58% 0 mm 559 W/m2
16:49 15 °C 7 °C 1005.66 hPa N 20 km/h 17 km/h 60% 0 mm 554 W/m2
16:54 15 °C 7 °C 1005.62 hPa N 20 km/h 16 km/h 60% 0 mm 487 W/m2
16:59 14 °C 7 °C 1005.59 hPa N 19 km/h 15 km/h 61% 0 mm 431 W/m2
17:04 14 °C 7 °C 1005.52 hPa N 17 km/h 14 km/h 61% 0 mm 387 W/m2
17:09 14 °C 7 °C 1005.52 hPa N 17 km/h 14 km/h 63% 0 mm 378 W/m2
17:14 14 °C 9 °C 1005.49 hPa N 18 km/h 15 km/h 69% 0 mm 410 W/m2
17:19 14 °C 9 °C 1005.49 hPa N 21 km/h 19 km/h 72% 0 mm 445 W/m2
17:24 14 °C 9 °C 1005.45 hPa N 20 km/h 17 km/h 73% 0 mm 462 W/m2
17:29 14 °C 9 °C 1005.38 hPa N 15 km/h 14 km/h 74% 0 mm 443 W/m2
17:34 14 °C 10 °C 1005.38 hPa N 18 km/h 18 km/h 74% 0 mm 413 W/m2
17:39 14 °C 9 °C 1005.38 hPa N 18 km/h 19 km/h 74% 0 mm 387 W/m2
17:44 14 °C 9 °C 1005.32 hPa N 19 km/h 17 km/h 75% 0 mm 360 W/m2
17:49 14 °C 9 °C 1005.28 hPa N 19 km/h 17 km/h 75% 0 mm 318 W/m2
17:54 14 °C 10 °C 1005.15 hPa N 17 km/h 16 km/h 75% 0 mm 322 W/m2
17:59 14 °C 10 °C 1005.11 hPa N 20 km/h 16 km/h 75% 0 mm 309 W/m2
18:04 14 °C 10 °C 1005.01 hPa N 18 km/h 16 km/h 75% 0 mm 306 W/m2
18:09 14 °C 10 °C 1004.94 hPa N 17 km/h 17 km/h 76% 0 mm 290 W/m2
18:14 14 °C 10 °C 1004.84 hPa N 17 km/h 15 km/h 76% 0 mm 267 W/m2
Compliments of Weather Underground - 2 mb